Brockley, United Kingdom
Current Conditions -  °F | °C
As of 1:50 AM on Thursday 27 Nov 2014 (Local Time) from EGLC Reporting Station
Moderate Fog Moderate Fog  
Wind Chill: 50°   Ceiling: Unl
Heat Index: 50°   Visibility: 0.18mi
Dew Point: 50°   Wind: 5mph
Humidity: 100%   Direction: 100°E
Pressure: 29.68"   Gusts: NA
Location:  51.45°N, 0.03°W
Report Text: EGLC 270150Z AUTO 10004KT 0300 FG VV/// 10/10 Q1005
Loading
Personal Weather Stations






























Interactive Weather Map New forecast layout! Learn more

10-Day Weather Forecast

Advertisements
Track Severe Weather on mobile